createdAt,value
2018-08-28T00:01:45.377Z,0
2018-08-28T00:02:25.913Z,0
2018-08-28T00:03:06.109Z,0
2018-08-28T00:03:46.521Z,0
2018-08-28T00:06:35.031Z,0
2018-08-28T00:07:29.971Z,0
2018-08-28T00:08:22.811Z,0
2018-08-28T00:09:15.649Z,0
2018-08-28T00:10:09.118Z,0
2018-08-28T00:11:01.632Z,0
2018-08-28T00:11:56.827Z,0
2018-08-28T00:12:59.812Z,0
2018-08-28T00:13:53.690Z,0
2018-08-28T00:14:47.754Z,0
2018-08-28T00:15:47.972Z,0
2018-08-28T00:16:41.901Z,0
2018-08-28T00:17:34.359Z,0
2018-08-28T00:18:31.498Z,0
2018-08-28T00:19:26.188Z,0
2018-08-28T00:20:19.383Z,0
2018-08-28T00:21:12.553Z,0
2018-08-28T00:22:06.600Z,0
2018-08-28T00:23:00.170Z,0
2018-08-28T00:23:55.064Z,0
2018-08-28T00:24:48.048Z,0
2018-08-28T00:25:40.063Z,0
2018-08-28T00:26:32.660Z,0
2018-08-28T00:27:28.605Z,0
2018-08-28T00:28:21.973Z,0
2018-08-28T00:29:15.910Z,0
2018-08-28T00:30:12.111Z,0
2018-08-28T00:31:05.584Z,0
2018-08-28T00:33:19.379Z,0
2018-08-28T00:33:59.818Z,0
2018-08-28T00:34:40.233Z,0
2018-08-28T00:35:20.545Z,0
2018-08-28T00:36:00.953Z,0
2018-08-28T00:36:41.466Z,0
2018-08-28T00:37:21.816Z,0
2018-08-28T00:38:02.245Z,0
2018-08-28T00:38:42.605Z,0
2018-08-28T00:39:23.133Z,0
2018-08-28T00:40:03.545Z,0
2018-08-28T00:40:44.187Z,0
2018-08-28T00:41:24.590Z,0
2018-08-28T00:42:05.026Z,0
2018-08-28T00:42:45.503Z,0
2018-08-28T00:43:25.868Z,0
2018-08-28T00:44:06.274Z,0
2018-08-28T00:44:46.651Z,0
2018-08-28T00:45:27.132Z,0
2018-08-28T00:46:07.724Z,0
2018-08-28T00:46:48.127Z,0
2018-08-28T00:47:28.457Z,0
2018-08-28T00:48:08.854Z,0
2018-08-28T00:48:49.339Z,0
2018-08-28T00:49:29.683Z,0
2018-08-28T00:50:10.113Z,0
2018-08-28T00:50:50.553Z,0
2018-08-28T00:51:30.844Z,0
2018-08-28T00:52:11.352Z,0
2018-08-28T00:52:51.698Z,0
2018-08-28T00:53:32.081Z,0
2018-08-28T00:54:12.520Z,0
2018-08-28T00:54:52.919Z,0
2018-08-28T00:55:33.367Z,0
2018-08-28T00:56:13.732Z,0
2018-08-28T00:56:54.156Z,0
2018-08-28T00:57:34.576Z,0
2018-08-28T00:58:14.959Z,0
2018-08-28T00:58:55.417Z,0
2018-08-28T00:59:35.764Z,0
2018-08-28T01:00:16.208Z,0
2018-08-28T01:00:56.595Z,0
2018-08-28T01:04:36.782Z,0
2018-08-28T01:05:16.786Z,0
2018-08-28T01:05:57.137Z,0
2018-08-28T01:06:37.566Z,0
2018-08-28T01:07:17.950Z,0
2018-08-28T01:07:58.437Z,0
2018-08-28T01:13:29.270Z,0
2018-08-28T01:14:29.522Z,0
2018-08-28T01:17:45.699Z,0
2018-08-28T01:18:44.728Z,0
2018-08-28T01:19:38.026Z,0
2018-08-28T01:20:30.202Z,0
2018-08-28T01:21:22.388Z,0
2018-08-28T01:22:15.864Z,0
2018-08-28T01:23:07.873Z,0
2018-08-28T01:24:00.457Z,0
2018-08-28T01:24:52.891Z,0
2018-08-28T01:25:45.715Z,0
2018-08-28T01:26:37.872Z,0
2018-08-28T01:27:31.417Z,0
2018-08-28T01:28:24.956Z,0
2018-08-28T01:29:17.293Z,0
2018-08-28T01:30:09.493Z,0
2018-08-28T01:31:01.399Z,0
2018-08-28T01:31:53.859Z,0
2018-08-28T01:32:46.579Z,0
2018-08-28T01:33:39.009Z,0
2018-08-28T01:34:31.980Z,0
2018-08-28T01:35:37.991Z,0
2018-08-28T01:36:31.535Z,0
2018-08-28T01:37:39.868Z,0
2018-08-28T01:38:34.102Z,0
2018-08-28T01:39:26.595Z,0
2018-08-28T01:40:18.878Z,0
2018-08-28T01:41:11.624Z,0
2018-08-28T01:42:03.953Z,0
2018-08-28T01:42:56.520Z,0
2018-08-28T01:43:48.861Z,0
2018-08-28T01:44:41.015Z,0
2018-08-28T01:45:32.945Z,0
2018-08-28T01:46:25.289Z,0
2018-08-28T01:47:17.791Z,0
2018-08-28T01:48:09.993Z,0
2018-08-28T01:49:02.356Z,0
2018-08-28T01:49:54.433Z,0
2018-08-28T01:50:46.820Z,0
2018-08-28T01:51:39.515Z,0
2018-08-28T01:52:31.698Z,0
2018-08-28T01:53:23.886Z,0
2018-08-28T01:54:16.597Z,0
2018-08-28T01:55:03.418Z,0
2018-08-28T01:55:43.898Z,0
2018-08-28T01:56:24.184Z,0
2018-08-28T01:57:04.745Z,0
2018-08-28T01:57:45.269Z,0
2018-08-28T01:58:25.690Z,0
2018-08-28T01:59:06.120Z,0
2018-08-28T01:59:46.607Z,0
2018-08-28T02:00:27.160Z,0
2018-08-28T02:01:07.589Z,0
2018-08-28T02:01:48.145Z,0
2018-08-28T02:02:28.850Z,0
2018-08-28T02:03:09.242Z,0
2018-08-28T02:03:49.696Z,0
2018-08-28T02:04:30.199Z,0
2018-08-28T02:05:10.662Z,0
2018-08-28T02:05:51.032Z,0
2018-08-28T02:06:31.503Z,0
2018-08-28T02:07:12.104Z,0
2018-08-28T02:07:52.532Z,0
2018-08-28T02:08:32.943Z,0
2018-08-28T02:09:13.345Z,0
2018-08-28T02:09:53.793Z,0
2018-08-28T02:10:34.118Z,0
2018-08-28T02:11:14.652Z,0
2018-08-28T02:11:55.049Z,0
2018-08-28T02:12:35.484Z,0
2018-08-28T02:13:16.052Z,0
2018-08-28T02:13:56.606Z,0
2018-08-28T02:14:36.978Z,0
2018-08-28T02:15:17.463Z,0
2018-08-28T02:15:57.835Z,0
2018-08-28T02:16:38.405Z,0
2018-08-28T02:17:18.718Z,0
2018-08-28T02:17:59.166Z,0
2018-08-28T02:18:39.738Z,0
2018-08-28T02:19:20.094Z,0
2018-08-28T02:20:00.509Z,0
2018-08-28T02:20:41.136Z,0
2018-08-28T02:21:21.298Z,0
2018-08-28T02:22:01.756Z,0
2018-08-28T02:22:42.241Z,0
2018-08-28T02:23:22.723Z,0
2018-08-28T02:24:03.007Z,0
2018-08-28T02:24:43.625Z,0
2018-08-28T02:25:24.149Z,0
2018-08-28T02:26:04.581Z,0
2018-08-28T02:26:45.046Z,0
2018-08-28T02:27:25.575Z,0
2018-08-28T02:28:05.868Z,0
2018-08-28T02:28:46.505Z,0
2018-08-28T02:29:27.182Z,0
2018-08-28T02:30:07.650Z,0
2018-08-28T02:30:47.909Z,0
2018-08-28T02:31:29.014Z,0
2018-08-28T02:32:09.506Z,0
2018-08-28T02:32:49.852Z,0
2018-08-28T02:33:30.392Z,0
2018-08-28T02:34:10.858Z,0
2018-08-28T02:34:51.326Z,0
2018-08-28T02:35:31.833Z,0
2018-08-28T02:36:12.262Z,0
2018-08-28T02:36:52.500Z,0
2018-08-28T02:37:33.116Z,0
2018-08-28T02:38:13.566Z,0
2018-08-28T02:38:53.827Z,0
2018-08-28T02:39:34.298Z,0
2018-08-28T02:40:14.664Z,0
2018-08-28T02:40:55.025Z,0
2018-08-28T02:41:35.477Z,0
2018-08-28T02:42:15.863Z,0
2018-08-28T02:42:56.324Z,0
2018-08-28T02:43:36.676Z,0
2018-08-28T02:44:17.004Z,0
2018-08-28T02:44:57.515Z,0
2018-08-28T02:45:37.850Z,0
2018-08-28T02:46:18.271Z,0
2018-08-28T02:46:58.679Z,0
2018-08-28T02:47:39.114Z,0
2018-08-28T02:48:19.485Z,0
2018-08-28T02:48:59.930Z,0
2018-08-28T02:49:40.328Z,0
2018-08-28T02:50:20.684Z,0
2018-08-28T02:51:01.088Z,0
2018-08-28T02:51:41.486Z,0
2018-08-28T02:52:21.951Z,0
2018-08-28T02:53:02.275Z,0
2018-08-28T02:53:42.692Z,0
2018-08-28T02:54:23.091Z,0
2018-08-28T02:55:03.459Z,0
2018-08-28T02:55:43.882Z,0
2018-08-28T02:56:24.311Z,0
2018-08-28T02:57:04.718Z,0
2018-08-28T02:57:45.134Z,0
2018-08-28T02:58:25.541Z,0
2018-08-28T02:59:05.938Z,0
2018-08-28T02:59:46.264Z,0
2018-08-28T03:00:26.728Z,0
2018-08-28T03:01:07.113Z,0
2018-08-28T03:01:47.599Z,0
2018-08-28T03:02:27.947Z,0
2018-08-28T03:03:08.356Z,0
2018-08-28T03:03:48.707Z,0
2018-08-28T03:04:29.081Z,0
2018-08-28T03:05:09.477Z,0
2018-08-28T03:05:49.864Z,0
2018-08-28T03:06:30.288Z,0
2018-08-28T03:07:10.693Z,0
2018-08-28T03:07:51.101Z,0
2018-08-28T03:08:31.484Z,0
2018-08-28T03:09:11.883Z,0
2018-08-28T03:09:52.302Z,0
2018-08-28T03:10:32.775Z,0
2018-08-28T03:11:13.121Z,0
2018-08-28T03:11:53.490Z,0
2018-08-28T03:12:33.934Z,0
2018-08-28T03:13:14.301Z,0
2018-08-28T03:13:54.766Z,0
2018-08-28T03:14:35.141Z,0
2018-08-28T03:15:15.645Z,0
2018-08-28T03:15:56.063Z,0
2018-08-28T03:16:36.375Z,0
2018-08-28T03:17:16.820Z,0
2018-08-28T03:17:57.151Z,0
2018-08-28T03:18:37.569Z,0
2018-08-28T03:19:18.015Z,0
2018-08-28T03:19:58.431Z,0
2018-08-28T03:20:38.863Z,0
2018-08-28T03:21:19.222Z,0
2018-08-28T03:21:59.617Z,0
2018-08-28T03:22:39.980Z,0
2018-08-28T03:23:20.380Z,0
2018-08-28T03:24:00.808Z,0
2018-08-28T03:24:41.219Z,0
2018-08-28T03:25:21.664Z,0
2018-08-28T03:26:02.059Z,0
2018-08-28T03:26:42.451Z,0
2018-08-28T03:27:22.841Z,0
2018-08-28T03:28:03.206Z,0
2018-08-28T03:28:43.657Z,0
2018-08-28T03:29:24.100Z,0
2018-08-28T03:30:04.504Z,0
2018-08-28T03:30:44.942Z,0
2018-08-28T03:31:25.310Z,0
2018-08-28T03:32:05.705Z,0
2018-08-28T03:32:46.044Z,0
2018-08-28T03:33:26.449Z,0
2018-08-28T03:34:06.881Z,0
2018-08-28T03:34:47.280Z,0
2018-08-28T03:35:27.762Z,0
2018-08-28T03:36:08.120Z,0
2018-08-28T03:36:48.491Z,0
2018-08-28T03:37:28.872Z,0
2018-08-28T03:38:09.313Z,0
2018-08-28T03:38:49.676Z,0
2018-08-28T03:39:30.155Z,0
2018-08-28T03:40:10.496Z,0
2018-08-28T03:40:50.888Z,0
2018-08-28T03:41:31.385Z,0
2018-08-28T03:42:11.739Z,0
2018-08-28T03:42:52.173Z,0
2018-08-28T03:43:32.522Z,0
2018-08-28T03:44:12.979Z,0
2018-08-28T03:44:53.427Z,0
2018-08-28T03:45:33.802Z,0
2018-08-28T03:46:14.133Z,0
2018-08-28T03:46:54.491Z,0
2018-08-28T03:47:34.967Z,0
2018-08-28T03:48:15.332Z,0
2018-08-28T03:48:55.742Z,0
2018-08-28T03:49:36.120Z,0
2018-08-28T03:50:16.545Z,0
2018-08-28T03:50:56.935Z,0
2018-08-28T03:51:37.251Z,0
2018-08-28T03:52:17.700Z,0
2018-08-28T03:52:58.076Z,0
2018-08-28T03:53:38.461Z,0
2018-08-28T03:54:18.936Z,0
2018-08-28T03:54:59.448Z,0
2018-08-28T03:55:39.888Z,0
2018-08-28T03:56:20.244Z,0
2018-08-28T03:57:00.730Z,0
2018-08-28T03:57:41.086Z,0
2018-08-28T03:58:21.448Z,0
2018-08-28T03:59:01.888Z,0
2018-08-28T03:59:42.241Z,0
2018-08-28T04:00:22.670Z,0
2018-08-28T04:01:03.078Z,0
2018-08-28T04:01:43.458Z,0
2018-08-28T04:02:23.807Z,0
2018-08-28T04:03:04.233Z,0
2018-08-28T04:03:44.684Z,0
2018-08-28T04:04:25.865Z,0
2018-08-28T04:05:06.382Z,0
2018-08-28T04:05:46.797Z,0
2018-08-28T04:06:27.141Z,0
2018-08-28T04:07:07.572Z,0
2018-08-28T04:07:48.016Z,0
2018-08-28T04:08:28.396Z,0
2018-08-28T04:09:08.911Z,0
2018-08-28T04:09:49.253Z,0
2018-08-28T04:10:29.734Z,0
2018-08-28T04:11:10.066Z,0
2018-08-28T04:11:50.534Z,0
2018-08-28T04:12:30.913Z,0
2018-08-28T04:13:11.273Z,0
2018-08-28T04:13:51.718Z,0
2018-08-28T04:14:32.156Z,0
2018-08-28T04:15:12.564Z,0
2018-08-28T04:15:52.935Z,0
2018-08-28T04:16:33.328Z,0
2018-08-28T04:17:13.761Z,0
2018-08-28T04:17:54.078Z,0
2018-08-28T04:18:34.646Z,0
2018-08-28T04:19:14.959Z,0
2018-08-28T04:19:55.360Z,0
2018-08-28T04:20:35.760Z,0
2018-08-28T04:21:16.159Z,0
2018-08-28T04:21:56.629Z,0
2018-08-28T04:22:37.108Z,0
2018-08-28T04:23:17.436Z,0
2018-08-28T04:23:57.849Z,0
2018-08-28T04:24:38.159Z,0
2018-08-28T04:25:18.720Z,0
2018-08-28T04:25:59.049Z,0
2018-08-28T04:26:39.389Z,0
2018-08-28T04:27:19.862Z,0
2018-08-28T05:07:08.091Z,20
2018-08-28T05:08:00.580Z,20
2018-08-28T05:08:53.080Z,20
2018-08-28T05:09:45.340Z,20
2018-08-28T05:10:38.173Z,25
2018-08-28T05:11:30.591Z,25
2018-08-28T05:14:17.074Z,30
2018-08-28T05:15:09.715Z,35
2018-08-28T05:16:01.890Z,35
2018-08-28T05:16:54.253Z,35
2018-08-28T05:17:46.612Z,40
2018-08-28T05:18:37.896Z,40
2018-08-28T05:19:18.017Z,40
2018-08-28T05:19:58.448Z,45
2018-08-28T05:20:38.857Z,45
2018-08-28T05:21:19.601Z,50
2018-08-28T05:22:00.033Z,55
2018-08-28T05:22:40.449Z,65
2018-08-28T05:23:21.483Z,85
2018-08-28T05:24:01.723Z,100
2018-08-28T05:24:42.120Z,110
2018-08-28T05:25:22.541Z,115
2018-08-28T05:26:02.957Z,120
2018-08-28T05:26:43.384Z,120
2018-08-28T05:27:23.773Z,120
2018-08-28T05:28:04.231Z,115
2018-08-28T05:28:44.696Z,115
2018-08-28T05:29:25.090Z,120
2018-08-28T05:30:05.443Z,120
2018-08-28T05:30:45.862Z,120
2018-08-28T05:31:26.300Z,120
2018-08-28T05:32:06.682Z,120
2018-08-28T05:32:47.050Z,120
2018-08-28T05:33:27.494Z,120
2018-08-28T05:34:07.972Z,120
2018-08-28T05:34:48.481Z,125
2018-08-28T05:35:29.073Z,125
2018-08-28T05:36:09.721Z,130
2018-08-28T05:36:50.110Z,130
2018-08-28T05:37:30.583Z,130
2018-08-28T05:38:11.249Z,135
2018-08-28T05:38:51.683Z,145
2018-08-28T05:39:32.147Z,145
2018-08-28T05:40:12.606Z,145
2018-08-28T05:40:53.165Z,145
2018-08-28T05:41:33.634Z,150
2018-08-28T05:42:14.098Z,155
2018-08-28T05:42:54.603Z,155
2018-08-28T05:43:35.117Z,160
2018-08-28T05:44:15.627Z,165
2018-08-28T05:44:56.061Z,170
2018-08-28T05:45:36.449Z,175
2018-08-28T05:46:16.818Z,175
2018-08-28T05:46:57.299Z,185
2018-08-28T05:47:37.697Z,190
2018-08-28T05:48:18.194Z,195
2018-08-28T05:48:58.662Z,200
2018-08-28T05:49:39.446Z,205
2018-08-28T05:50:19.938Z,220
2018-08-28T05:51:00.206Z,220
2018-08-28T05:51:40.688Z,225
2018-08-28T05:52:21.133Z,225
2018-08-28T05:53:01.528Z,225
2018-08-28T05:53:41.997Z,225
2018-08-28T05:54:22.495Z,235
2018-08-28T05:55:02.973Z,235
2018-08-28T05:55:43.424Z,240
2018-08-28T05:56:23.767Z,240
2018-08-28T05:57:04.251Z,245
2018-08-28T05:57:44.662Z,250
2018-08-28T05:58:29.003Z,255
2018-08-28T06:01:02.283Z,265
2018-08-28T06:01:48.417Z,270
2018-08-28T06:02:29.436Z,270
2018-08-28T06:03:10.487Z,270
2018-08-28T06:03:50.846Z,270
2018-08-28T06:04:32.370Z,280
2018-08-28T06:05:12.628Z,285
2018-08-28T06:05:54.418Z,295
2018-08-28T06:06:33.907Z,300
2018-08-28T06:07:14.809Z,310
2018-08-28T06:07:56.179Z,320
2018-08-28T06:08:36.676Z,315
2018-08-28T06:09:17.249Z,315
2018-08-28T06:09:59.057Z,325
2018-08-28T06:10:39.979Z,330
2018-08-28T06:11:21.111Z,335
2018-08-28T06:12:02.867Z,340
2018-08-28T06:12:43.643Z,350
2018-08-28T06:13:24.536Z,355
2018-08-28T06:14:06.663Z,355
2018-08-28T06:14:48.343Z,360
2018-08-28T06:15:31.250Z,370
2018-08-28T06:16:12.363Z,370
2018-08-28T06:16:53.814Z,375
2018-08-28T06:17:34.345Z,375
2018-08-28T06:18:15.553Z,375
2018-08-28T06:18:55.853Z,385
2018-08-28T06:19:36.673Z,390
2018-08-28T06:20:18.596Z,395
2018-08-28T06:20:59.470Z,405
2018-08-28T06:21:40.334Z,410
2018-08-28T06:22:21.666Z,420
2018-08-28T06:23:02.805Z,420
2018-08-28T06:23:43.912Z,425
2018-08-28T06:24:24.570Z,425
2018-08-28T06:25:05.637Z,430
2018-08-28T06:25:46.500Z,430
2018-08-28T06:26:27.702Z,425
2018-08-28T06:27:09.440Z,420
2018-08-28T06:27:52.396Z,430
2018-08-28T06:28:34.061Z,445
2018-08-28T06:29:26.200Z,465
2018-08-28T06:30:11.375Z,480
2018-08-28T06:30:53.444Z,485
2018-08-28T06:31:34.346Z,495
2018-08-28T06:32:16.103Z,505
2018-08-28T06:32:58.452Z,530
2018-08-28T06:33:39.263Z,535
2018-08-28T06:34:20.238Z,525
2018-08-28T06:35:02.199Z,520
2018-08-28T06:37:37.170Z,545
2018-08-28T06:38:33.729Z,555
2018-08-28T06:39:30.889Z,565
2018-08-28T06:40:27.286Z,565
2018-08-28T06:41:22.025Z,565
2018-08-28T06:42:21.233Z,580
2018-08-28T06:43:19.604Z,555
2018-08-28T06:44:13.169Z,585
2018-08-28T06:45:07.718Z,595
2018-08-28T06:46:02.107Z,615
2018-08-28T06:46:57.392Z,625
2018-08-28T06:47:54.262Z,635
2018-08-28T06:48:51.580Z,635
2018-08-28T06:51:23.697Z,290
2018-08-28T06:52:16.207Z,270
2018-08-28T06:53:08.699Z,270
2018-08-28T06:54:02.373Z,265
2018-08-28T06:54:56.355Z,265
2018-08-28T06:55:52.492Z,270
2018-08-28T06:56:45.746Z,275
2018-08-28T06:57:44.602Z,270
2018-08-28T06:58:41.044Z,265
2018-08-28T06:59:24.798Z,260
2018-08-28T07:00:10.718Z,260
2018-08-28T07:00:52.809Z,260
2018-08-28T07:01:34.058Z,270
2018-08-28T07:02:16.011Z,270
2018-08-28T07:02:55.395Z,270
2018-08-28T07:03:35.795Z,275
2018-08-28T07:04:16.279Z,275
2018-08-28T07:04:56.685Z,275
2018-08-28T07:05:37.055Z,275
2018-08-28T07:06:17.569Z,275
2018-08-28T07:06:57.916Z,275
2018-08-28T07:07:38.430Z,280
2018-08-28T07:08:19.055Z,285
2018-08-28T07:08:59.650Z,280
2018-08-28T07:09:40.264Z,285
2018-08-28T07:10:20.596Z,280
2018-08-28T07:11:01.323Z,285
2018-08-28T07:11:41.671Z,290
2018-08-28T07:12:22.178Z,285
2018-08-28T07:13:02.626Z,290
2018-08-28T07:13:43.035Z,290
2018-08-28T07:14:23.459Z,290
2018-08-28T07:15:03.822Z,290
2018-08-28T07:15:44.279Z,290
2018-08-28T07:16:24.660Z,285
2018-08-28T07:17:05.181Z,290
2018-08-28T07:17:45.557Z,280
2018-08-28T07:18:26.240Z,290
2018-08-28T07:19:06.701Z,295
2018-08-28T07:19:48.369Z,310
2018-08-28T07:20:30.231Z,315
2018-08-28T07:21:10.623Z,310
2018-08-28T07:21:51.571Z,310
2018-08-28T07:22:31.950Z,300
2018-08-28T07:23:12.515Z,300
2018-08-28T07:23:54.425Z,295
2018-08-28T07:24:37.917Z,280
2018-08-28T07:25:21.188Z,260
2018-08-28T07:26:03.000Z,240
2018-08-28T07:26:44.937Z,230
2018-08-28T07:27:26.979Z,225
2018-08-28T07:28:08.933Z,220
2018-08-28T07:28:49.267Z,215
2018-08-28T07:29:29.846Z,210
2018-08-28T07:30:10.386Z,215
2018-08-28T07:30:51.350Z,205
2018-08-28T07:31:31.758Z,200
2018-08-28T07:32:12.222Z,200
2018-08-28T07:32:53.081Z,200
2018-08-28T07:33:33.330Z,195
2018-08-28T07:34:13.868Z,190
2018-08-28T07:34:54.419Z,190
2018-08-28T07:35:34.999Z,185
2018-08-28T07:36:15.246Z,185
2018-08-28T07:36:56.576Z,175
2018-08-28T07:37:37.853Z,170
2018-08-28T07:38:19.201Z,170
2018-08-28T07:38:59.338Z,165
2018-08-28T07:39:39.851Z,165
2018-08-28T07:40:21.108Z,165
2018-08-28T07:41:03.543Z,170
2018-08-28T07:41:43.920Z,165
2018-08-28T07:42:25.128Z,165
2018-08-28T07:43:07.677Z,165
2018-08-28T07:43:47.994Z,160
2018-08-28T07:44:32.136Z,160
2018-08-28T07:45:12.800Z,160
2018-08-28T07:45:53.841Z,160
2018-08-28T07:46:39.100Z,155
2018-08-28T07:47:20.057Z,155
2018-08-28T07:48:01.005Z,155
2018-08-28T07:48:44.161Z,150
2018-08-28T07:49:25.767Z,150
2018-08-28T07:50:05.659Z,150
2018-08-28T07:50:46.983Z,145
2018-08-28T07:51:29.713Z,145
2018-08-28T07:52:15.373Z,145
2018-08-28T07:53:05.176Z,145
2018-08-28T07:53:47.945Z,145
2018-08-28T07:54:32.659Z,140
2018-08-28T07:55:16.182Z,140
2018-08-28T07:58:34.070Z,135
2018-08-28T07:59:14.503Z,135
2018-08-28T07:59:54.948Z,135
2018-08-28T08:00:35.449Z,135
2018-08-28T08:01:15.791Z,135
2018-08-28T08:01:56.201Z,135
2018-08-28T08:02:36.652Z,130
2018-08-28T08:03:17.167Z,130
2018-08-28T08:03:58.058Z,130
2018-08-28T08:04:39.795Z,130
2018-08-28T08:05:20.884Z,130
2018-08-28T08:06:00.768Z,130
2018-08-28T08:06:41.915Z,130
2018-08-28T08:07:21.798Z,130
2018-08-28T08:08:02.484Z,130
2018-08-28T08:08:42.690Z,130
2018-08-28T08:09:23.309Z,130
2018-08-28T08:10:03.707Z,125
2018-08-28T08:10:44.417Z,125
2018-08-28T08:11:25.861Z,125
2018-08-28T08:12:07.170Z,125
2018-08-28T08:12:47.725Z,125
2018-08-28T08:13:28.235Z,125
2018-08-28T08:14:08.597Z,125
2018-08-28T08:14:48.982Z,125
2018-08-28T08:15:29.480Z,125
2018-08-28T08:16:10.101Z,125
2018-08-28T08:16:55.270Z,120
2018-08-28T08:17:35.485Z,120
2018-08-28T08:18:15.937Z,125
2018-08-28T08:18:56.322Z,120
2018-08-28T08:19:36.710Z,120
2018-08-28T08:20:17.225Z,120
2018-08-28T08:20:57.578Z,115
2018-08-28T08:21:38.106Z,115
2018-08-28T08:22:18.554Z,115
2018-08-28T08:22:58.867Z,120
2018-08-28T08:23:39.279Z,115
2018-08-28T08:24:19.667Z,115
2018-08-28T08:25:00.173Z,110
2018-08-28T08:25:40.552Z,115
2018-08-28T08:26:20.964Z,115
2018-08-28T08:27:01.399Z,110
2018-08-28T08:27:41.808Z,115
2018-08-28T08:28:22.292Z,115
2018-08-28T08:29:02.662Z,115
2018-08-28T08:29:43.026Z,115
2018-08-28T08:30:23.577Z,120
2018-08-28T08:31:07.757Z,120
2018-08-28T08:31:48.009Z,115
2018-08-28T08:32:28.445Z,115
2018-08-28T08:33:08.952Z,100
2018-08-28T08:33:49.297Z,100
2018-08-28T08:34:29.759Z,95
2018-08-28T08:35:10.193Z,95
2018-08-28T08:35:50.703Z,95
2018-08-28T08:36:31.537Z,90
2018-08-28T08:37:11.962Z,85
2018-08-28T08:37:52.345Z,90
2018-08-28T08:38:32.899Z,90
2018-08-28T08:39:13.332Z,80
2018-08-28T08:39:53.815Z,80
2018-08-28T08:40:34.282Z,80
2018-08-28T08:41:14.651Z,75
2018-08-28T08:41:55.132Z,75
2018-08-28T08:42:36.561Z,75
2018-08-28T08:43:16.744Z,75
2018-08-28T08:43:57.273Z,75
2018-08-28T08:44:38.436Z,75
2018-08-28T08:45:18.704Z,80
2018-08-28T08:45:59.179Z,80
2018-08-28T08:46:39.689Z,80
2018-08-28T08:47:20.082Z,75
2018-08-28T08:48:00.591Z,75
2018-08-28T08:48:41.012Z,70
2018-08-28T08:49:21.455Z,70
2018-08-28T08:50:02.104Z,65
2018-08-28T08:50:42.357Z,65
2018-08-28T08:51:22.815Z,65
2018-08-28T08:52:03.301Z,60
2018-08-28T08:52:44.093Z,60
2018-08-28T08:53:24.711Z,55
2018-08-28T08:54:05.176Z,55
2018-08-28T08:54:45.605Z,55
2018-08-28T08:55:26.047Z,50
2018-08-28T08:56:06.570Z,50
2018-08-28T08:59:12.527Z,45
2018-08-28T09:00:05.123Z,45
2018-08-28T09:01:00.562Z,45
2018-08-28T09:01:55.583Z,45
2018-08-28T09:02:56.071Z,45
2018-08-28T09:03:56.346Z,45
2018-08-28T09:04:45.057Z,45
2018-08-28T09:05:25.694Z,45
2018-08-28T09:06:06.170Z,45
2018-08-28T09:06:46.495Z,45
2018-08-28T09:07:27.657Z,45
2018-08-28T09:08:08.215Z,45
2018-08-28T09:08:49.459Z,45
2018-08-28T09:09:30.012Z,45
2018-08-28T09:10:10.406Z,45
2018-08-28T09:10:50.835Z,40
2018-08-28T09:11:31.370Z,40
2018-08-28T09:12:11.765Z,40
2018-08-28T09:12:52.329Z,45
2018-08-28T09:13:32.775Z,45
2018-08-28T09:14:13.209Z,45
2018-08-28T09:14:53.617Z,45
2018-08-28T09:15:35.032Z,45
2018-08-28T09:16:15.817Z,45
2018-08-28T09:16:56.459Z,45
2018-08-28T09:17:36.788Z,45
2018-08-28T09:18:17.354Z,45
2018-08-28T09:18:58.229Z,40
2018-08-28T09:19:38.612Z,40
2018-08-28T09:20:19.112Z,40
2018-08-28T09:20:59.684Z,45
2018-08-28T09:21:39.981Z,45
2018-08-28T09:22:20.347Z,45
2018-08-28T09:23:01.489Z,45
2018-08-28T09:23:42.643Z,45
2018-08-28T09:24:22.878Z,45
2018-08-28T09:25:03.347Z,40
2018-08-28T09:25:43.651Z,40
2018-08-28T09:26:24.439Z,40
2018-08-28T09:27:04.857Z,40
2018-08-28T09:27:45.247Z,40
2018-08-28T09:28:25.675Z,40
2018-08-28T09:29:06.098Z,40
2018-08-28T09:29:46.517Z,40
2018-08-28T09:30:26.991Z,40
2018-08-28T09:31:07.791Z,40
2018-08-28T09:31:52.947Z,40
2018-08-28T09:32:33.399Z,40
2018-08-28T09:33:13.831Z,40
2018-08-28T09:33:54.258Z,40
2018-08-28T09:34:35.102Z,40
2018-08-28T09:35:15.353Z,40
2018-08-28T09:35:56.710Z,40
2018-08-28T09:36:37.151Z,40
2018-08-28T09:37:17.815Z,40
2018-08-28T09:38:07.756Z,40
2018-08-28T09:38:48.018Z,40
2018-08-28T09:39:30.604Z,40
2018-08-28T09:40:13.048Z,40
2018-08-28T09:40:53.431Z,40
2018-08-28T09:41:33.892Z,40
2018-08-28T09:42:14.337Z,40
2018-08-28T09:42:54.731Z,40
2018-08-28T09:43:35.353Z,40
2018-08-28T09:44:27.739Z,40
2018-08-28T09:47:28.675Z,40
2018-08-28T09:48:23.447Z,40
2018-08-28T09:49:21.788Z,40
2018-08-28T09:50:16.140Z,45
2018-08-28T09:51:13.821Z,45
2018-08-28T09:52:04.005Z,45
2018-08-28T09:52:45.802Z,45
2018-08-28T09:53:26.798Z,50
2018-08-28T09:54:07.490Z,50
2018-08-28T09:54:48.742Z,50
2018-08-28T09:55:29.215Z,50
2018-08-28T09:56:29.920Z,50
2018-08-28T09:57:10.398Z,55
2018-08-28T09:57:56.719Z,55
2018-08-28T09:58:37.306Z,55
2018-08-28T09:59:18.009Z,55
2018-08-28T09:59:58.574Z,55
2018-08-28T10:00:40.272Z,60
2018-08-28T10:01:20.550Z,60
2018-08-28T10:02:01.632Z,60
2018-08-28T10:02:42.324Z,60
2018-08-28T10:03:22.994Z,60
2018-08-28T10:04:03.682Z,60
2018-08-28T10:04:44.345Z,60
2018-08-28T10:05:25.058Z,60
2018-08-28T10:06:05.977Z,65
2018-08-28T10:06:46.383Z,65
2018-08-28T10:07:26.946Z,65
2018-08-28T10:08:07.747Z,70
2018-08-28T10:08:56.816Z,70
2018-08-28T10:09:40.064Z,80
2018-08-28T10:10:30.364Z,80
2018-08-28T10:13:13.916Z,80
2018-08-28T10:14:08.706Z,80
2018-08-28T10:18:42.688Z,75
2018-08-28T10:19:21.996Z,75
2018-08-28T10:20:02.598Z,75
2018-08-28T10:20:42.957Z,75
2018-08-28T10:21:23.470Z,75
2018-08-28T10:22:04.902Z,80
2018-08-28T10:22:45.624Z,80
2018-08-28T10:23:26.292Z,80
2018-08-28T10:24:07.243Z,80
2018-08-28T10:24:54.078Z,80
2018-08-28T10:25:34.415Z,80
2018-08-28T10:26:20.145Z,75
2018-08-28T10:26:59.427Z,75
2018-08-28T10:27:39.949Z,80
2018-08-28T10:28:20.275Z,75
2018-08-28T10:29:00.716Z,75
2018-08-28T11:07:09.455Z,80
2018-08-28T11:07:51.424Z,80
2018-08-28T11:08:32.031Z,80
2018-08-28T11:09:13.408Z,80
2018-08-28T11:09:54.120Z,85
2018-08-28T11:10:35.401Z,85
2018-08-28T11:11:17.509Z,85
2018-08-28T11:11:58.729Z,85
2018-08-28T11:12:38.816Z,80
2018-08-28T11:13:19.568Z,80
2018-08-28T11:14:00.833Z,80
2018-08-28T11:14:41.167Z,75
2018-08-28T11:15:21.794Z,75
2018-08-28T11:16:02.583Z,75
2018-08-28T11:16:44.671Z,80
2018-08-28T11:17:25.609Z,80
2018-08-28T11:18:06.033Z,80
2018-08-28T11:18:46.955Z,80
2018-08-28T11:23:11.499Z,80
2018-08-28T11:23:51.716Z,80
2018-08-28T11:24:33.049Z,80
2018-08-28T11:25:13.955Z,80
2018-08-28T11:25:54.335Z,75
2018-08-28T11:26:35.171Z,75
2018-08-28T11:27:15.877Z,80
2018-08-28T11:27:56.677Z,80
2018-08-28T11:28:37.147Z,80
2018-08-28T11:29:18.500Z,75
2018-08-28T11:30:08.923Z,75
2018-08-28T11:30:49.979Z,75
2018-08-28T11:31:57.634Z,75
2018-08-28T11:32:37.943Z,75
2018-08-28T11:33:19.491Z,70
2018-08-28T11:33:59.776Z,75
2018-08-28T11:34:40.283Z,70
2018-08-28T11:35:21.103Z,70
2018-08-28T11:40:05.665Z,70
2018-08-28T11:40:46.665Z,65
2018-08-28T11:41:28.708Z,65
2018-08-28T11:42:09.709Z,65
2018-08-28T11:42:51.765Z,65
2018-08-28T11:43:34.750Z,70
2018-08-28T11:44:15.928Z,70
2018-08-28T11:44:56.511Z,70
2018-08-28T11:45:37.524Z,70
2018-08-28T11:46:20.103Z,65
2018-08-28T11:47:02.195Z,70
2018-08-28T11:47:43.895Z,70
2018-08-28T11:48:24.232Z,65
2018-08-28T11:50:56.493Z,65
2018-08-28T11:51:36.601Z,70
2018-08-28T11:52:17.051Z,70
2018-08-28T11:52:57.424Z,70
2018-08-28T11:53:37.886Z,70
2018-08-28T11:54:18.416Z,70
2018-08-28T11:54:58.864Z,70
2018-08-28T11:55:39.212Z,70
2018-08-28T11:56:19.747Z,70
2018-08-28T11:57:00.447Z,70
2018-08-28T11:57:40.851Z,70
2018-08-28T11:58:21.911Z,70
2018-08-28T11:59:02.289Z,70
2018-08-28T11:59:42.729Z,70
2018-08-28T12:00:23.238Z,70
2018-08-28T12:01:03.706Z,65
2018-08-28T12:01:44.250Z,65
2018-08-28T12:02:25.670Z,70
2018-08-28T12:03:05.434Z,65
2018-08-28T12:03:45.917Z,65
2018-08-28T12:04:26.444Z,65
2018-08-28T12:05:07.225Z,65
2018-08-28T12:05:47.557Z,65
2018-08-28T12:06:28.071Z,65
2018-08-28T12:07:08.695Z,65
2018-08-28T12:07:51.858Z,65
2018-08-28T12:08:31.661Z,65
2018-08-28T12:09:12.183Z,65
2018-08-28T12:09:52.832Z,65
2018-08-28T12:10:33.478Z,65
2018-08-28T12:11:13.983Z,65
2018-08-28T12:11:54.735Z,65
2018-08-28T12:12:35.326Z,65